createdAt,value
2016-08-24T00:00:05.348Z,0.00
2016-08-24T00:01:04.958Z,0.00
2016-08-24T00:02:05.469Z,0.00
2016-08-24T00:03:06.287Z,0.00
2016-08-24T00:04:06.500Z,0.00
2016-08-24T00:05:07.008Z,0.00
2016-08-24T00:06:07.514Z,0.00
2016-08-24T00:07:08.028Z,0.00
2016-08-24T00:08:08.544Z,0.00
2016-08-24T00:09:09.056Z,0.00
2016-08-24T00:10:09.574Z,0.00
2016-08-24T00:11:10.087Z,0.00
2016-08-24T00:12:10.755Z,0.00
2016-08-24T00:13:11.125Z,0.00
2016-08-24T00:14:11.636Z,0.00
2016-08-24T00:15:12.151Z,0.00
2016-08-24T00:16:12.817Z,0.00
2016-08-24T00:17:13.182Z,0.00
2016-08-24T00:18:13.697Z,0.00
2016-08-24T00:19:14.224Z,0.00
2016-08-24T00:20:14.716Z,0.00
2016-08-24T00:21:15.224Z,0.00
2016-08-24T00:22:15.886Z,0.00
2016-08-24T00:23:16.246Z,0.00
2016-08-24T00:24:16.759Z,0.00
2016-08-24T00:25:17.273Z,0.00
2016-08-24T00:26:17.931Z,0.00
2016-08-24T00:27:18.444Z,0.00
2016-08-24T00:28:18.806Z,0.00
2016-08-24T00:29:19.317Z,0.00
2016-08-24T00:30:19.834Z,0.00
2016-08-24T00:31:20.346Z,0.00
2016-08-24T00:32:20.857Z,0.00
2016-08-24T00:33:21.369Z,0.00
2016-08-24T00:34:22.070Z,0.00
2016-08-24T00:35:22.399Z,0.00
2016-08-24T00:36:23.060Z,0.00
2016-08-24T00:37:23.426Z,0.00
2016-08-24T00:38:23.946Z,0.00
2016-08-24T00:39:24.475Z,0.00
2016-08-24T00:40:24.966Z,0.00
2016-08-24T00:41:25.479Z,0.00
2016-08-24T00:42:26.140Z,0.00
2016-08-24T00:43:26.507Z,0.00
2016-08-24T00:44:27.168Z,0.00
2016-08-24T00:45:27.541Z,0.00
2016-08-24T00:46:28.198Z,0.00
2016-08-24T00:47:28.597Z,0.00
2016-08-24T00:48:29.084Z,0.00
2016-08-24T00:49:29.598Z,0.00
2016-08-24T00:50:30.115Z,0.00
2016-08-24T00:51:30.773Z,0.00
2016-08-24T00:52:31.142Z,0.00
2016-08-24T00:53:33.000Z,0.00
2016-08-24T00:54:32.172Z,0.00
2016-08-24T00:55:32.695Z,0.00
2016-08-24T00:56:33.194Z,0.00
2016-08-24T00:57:33.856Z,0.00
2016-08-24T00:58:34.261Z,0.00
2016-08-24T00:59:34.890Z,0.00
2016-08-24T01:00:35.249Z,0.00
2016-08-24T01:01:35.763Z,0.00
2016-08-24T01:02:36.270Z,0.00
2016-08-24T01:03:36.799Z,0.00
2016-08-24T01:04:37.314Z,0.00
2016-08-24T01:05:37.819Z,0.00
2016-08-24T01:06:38.338Z,0.00
2016-08-24T01:07:38.841Z,0.00
2016-08-24T01:08:39.506Z,0.00
2016-08-24T01:09:39.867Z,0.00
2016-08-24T01:10:40.391Z,0.00
2016-08-24T01:11:41.494Z,0.00
2016-08-24T01:12:41.407Z,0.00
2016-08-24T01:13:41.975Z,0.00
2016-08-24T01:14:42.433Z,0.00
2016-08-24T01:15:42.942Z,0.00
2016-08-24T01:16:43.456Z,0.00
2016-08-24T01:17:43.967Z,0.00
2016-08-24T01:18:44.489Z,0.00
2016-08-24T01:19:44.997Z,0.00
2016-08-24T01:20:45.510Z,0.00
2016-08-24T01:21:46.026Z,0.00
2016-08-24T01:22:46.695Z,0.00
2016-08-24T01:23:47.059Z,0.00
2016-08-24T01:24:47.575Z,0.00
2016-08-24T01:25:48.134Z,0.00
2016-08-24T01:26:48.608Z,0.00
2016-08-24T01:27:49.120Z,0.00
2016-08-24T01:28:49.673Z,0.00
2016-08-24T01:29:50.148Z,0.00
2016-08-24T01:30:50.672Z,0.00
2016-08-24T01:31:51.179Z,0.00
2016-08-24T01:32:51.698Z,0.00
2016-08-24T01:33:52.205Z,0.00
2016-08-24T01:34:52.877Z,0.00
2016-08-24T01:35:53.233Z,0.00
2016-08-24T01:36:53.761Z,0.00
2016-08-24T01:37:54.263Z,0.00
2016-08-24T01:38:54.833Z,0.00
2016-08-24T01:39:55.291Z,0.00
2016-08-24T01:40:55.803Z,0.00
2016-08-24T01:41:56.316Z,0.00
2016-08-24T01:42:56.834Z,0.00
2016-08-24T01:43:57.345Z,0.00
2016-08-24T01:44:57.861Z,0.00
2016-08-24T01:45:58.372Z,0.00
2016-08-24T01:46:58.889Z,0.00
2016-08-24T01:47:59.558Z,0.00
2016-08-24T01:48:59.910Z,0.00
2016-08-24T01:50:00.572Z,0.00
2016-08-24T01:51:00.943Z,0.00
2016-08-24T01:52:01.455Z,0.00
2016-08-24T01:53:01.971Z,0.00
2016-08-24T01:54:02.632Z,0.00
2016-08-24T01:55:02.999Z,0.00
2016-08-24T01:56:03.512Z,0.00
2016-08-24T01:57:04.178Z,0.00
2016-08-24T01:58:04.541Z,0.00
2016-08-24T01:59:05.061Z,0.00
2016-08-24T02:00:05.727Z,0.00
2016-08-24T02:01:06.089Z,0.00
2016-08-24T02:02:06.610Z,0.00
2016-08-24T02:03:07.131Z,0.00
2016-08-24T02:04:07.641Z,0.00
2016-08-24T02:05:08.160Z,0.00
2016-08-24T02:06:08.674Z,0.00
2016-08-24T02:07:09.186Z,0.00
2016-08-24T02:08:09.702Z,0.00
2016-08-24T02:09:10.217Z,0.00
2016-08-24T02:10:10.724Z,0.00
2016-08-24T02:11:11.264Z,0.00
2016-08-24T02:12:11.750Z,0.00
2016-08-24T02:13:12.264Z,0.00
2016-08-24T02:14:12.781Z,0.00
2016-08-24T02:15:13.298Z,0.00
2016-08-24T02:16:13.805Z,0.00
2016-08-24T02:17:14.507Z,0.00
2016-08-24T02:18:14.834Z,0.00
2016-08-24T02:19:15.349Z,0.00
2016-08-24T02:20:15.858Z,0.00
2016-08-24T02:21:16.388Z,0.00
2016-08-24T02:22:16.883Z,0.00
2016-08-24T02:23:17.394Z,0.00
2016-08-24T02:24:17.908Z,0.00
2016-08-24T02:25:18.571Z,0.00
2016-08-24T02:26:18.934Z,0.00
2016-08-24T02:27:19.448Z,0.00
2016-08-24T02:28:19.959Z,0.00
2016-08-24T02:29:20.622Z,0.00
2016-08-24T02:30:21.018Z,0.00
2016-08-24T02:31:21.494Z,0.00
2016-08-24T02:32:22.159Z,0.00
2016-08-24T02:33:22.548Z,0.00
2016-08-24T02:34:23.036Z,0.00
2016-08-24T02:35:23.552Z,0.00
2016-08-24T02:36:27.070Z,0.00
2016-08-24T02:37:24.584Z,0.00
2016-08-24T02:38:25.107Z,0.00
2016-08-24T02:39:25.766Z,0.00
2016-08-24T02:40:26.163Z,0.00
2016-08-24T02:41:26.647Z,0.00
2016-08-24T02:42:27.309Z,0.00
2016-08-24T02:43:27.677Z,0.00
2016-08-24T02:44:28.184Z,0.00
2016-08-24T02:45:28.697Z,0.00
2016-08-24T02:46:29.959Z,0.00
2016-08-24T02:47:29.715Z,0.00
2016-08-24T02:48:30.231Z,0.00
2016-08-24T02:49:30.927Z,0.00
2016-08-24T02:50:31.425Z,0.00
2016-08-24T02:51:31.781Z,0.00
2016-08-24T02:52:32.287Z,0.00
2016-08-24T02:53:32.801Z,0.00
2016-08-24T02:54:33.317Z,0.00
2016-08-24T02:55:33.837Z,0.00
2016-08-24T02:56:34.494Z,0.00
2016-08-24T02:57:34.874Z,0.00
2016-08-24T02:58:35.524Z,0.00
2016-08-24T02:59:35.880Z,0.00
2016-08-24T03:00:36.546Z,0.00
2016-08-24T03:01:36.915Z,0.00
2016-08-24T03:02:37.428Z,0.00
2016-08-24T03:03:37.943Z,0.00
2016-08-24T03:04:38.453Z,0.00
2016-08-24T03:05:38.970Z,0.00
2016-08-24T03:06:39.478Z,0.00
2016-08-24T03:07:39.995Z,0.00
2016-08-24T03:08:40.502Z,0.00
2016-08-24T03:09:41.020Z,0.00
2016-08-24T03:10:41.555Z,0.00
2016-08-24T03:11:42.060Z,0.00
2016-08-24T03:12:42.554Z,0.00
2016-08-24T03:13:43.082Z,0.00
2016-08-24T03:14:43.586Z,0.00
2016-08-24T03:15:44.106Z,0.00
2016-08-24T03:16:46.599Z,0.00
2016-08-24T03:17:45.138Z,0.00
2016-08-24T03:18:45.646Z,0.00
2016-08-24T03:19:46.311Z,0.00
2016-08-24T03:20:46.817Z,0.00
2016-08-24T03:21:47.189Z,0.00
2016-08-24T03:22:47.695Z,0.00
2016-08-24T03:23:48.357Z,0.00
2016-08-24T03:24:48.720Z,0.00
2016-08-24T03:25:49.239Z,0.00
2016-08-24T03:26:49.747Z,0.00
2016-08-24T03:27:50.265Z,0.00
2016-08-24T03:28:50.776Z,0.00
2016-08-24T03:29:51.293Z,0.00
2016-08-24T03:30:51.805Z,0.00
2016-08-24T03:31:52.314Z,0.00
2016-08-24T03:32:52.829Z,0.00
2016-08-24T03:33:53.343Z,0.00
2016-08-24T03:34:55.050Z,0.00
2016-08-24T03:35:54.359Z,0.00
2016-08-24T03:36:55.029Z,0.00
2016-08-24T03:37:55.388Z,0.00
2016-08-24T03:38:55.903Z,0.00
2016-08-24T03:39:56.410Z,0.00
2016-08-24T03:40:57.102Z,0.00
2016-08-24T03:41:57.582Z,0.00
2016-08-24T03:42:57.949Z,0.00
2016-08-24T03:43:58.464Z,0.00
2016-08-24T03:44:58.974Z,0.00
2016-08-24T03:45:59.498Z,0.00
2016-08-24T03:47:00.157Z,0.00
2016-08-24T03:48:00.509Z,0.00
2016-08-24T03:49:01.028Z,0.00
2016-08-24T03:50:01.695Z,0.00
2016-08-24T03:51:02.208Z,0.00
2016-08-24T03:52:02.582Z,0.00
2016-08-24T03:53:03.097Z,0.00
2016-08-24T03:54:03.635Z,0.00
2016-08-24T03:55:04.120Z,0.00
2016-08-24T03:56:04.634Z,0.00
2016-08-24T03:57:05.147Z,0.00
2016-08-24T03:58:05.660Z,0.00
2016-08-24T03:59:06.171Z,0.00
2016-08-24T04:00:06.680Z,0.00
2016-08-24T04:01:07.210Z,0.00
2016-08-24T04:02:07.714Z,0.00
2016-08-24T04:03:08.223Z,0.00
2016-08-24T04:04:08.731Z,0.00
2016-08-24T04:05:09.247Z,0.00
2016-08-24T04:06:09.761Z,0.00
2016-08-24T04:07:10.275Z,0.00
2016-08-24T04:08:10.792Z,0.00
2016-08-24T04:09:11.300Z,0.00
2016-08-24T04:10:11.811Z,0.00
2016-08-24T04:11:12.347Z,0.00
2016-08-24T04:12:12.838Z,0.00
2016-08-24T04:13:13.349Z,0.00
2016-08-24T04:14:13.865Z,0.00
2016-08-24T04:15:14.374Z,0.00
2016-08-24T04:16:14.890Z,0.00
2016-08-24T04:17:15.398Z,0.00
2016-08-24T04:18:15.920Z,0.00
2016-08-24T04:19:16.426Z,0.00
2016-08-24T04:20:16.943Z,0.00
2016-08-24T04:21:17.604Z,0.00
2016-08-24T04:22:17.972Z,0.00
2016-08-24T04:23:18.674Z,0.00
2016-08-24T04:24:18.998Z,0.00
2016-08-24T04:25:19.514Z,0.00
2016-08-24T04:26:20.027Z,0.00
2016-08-24T04:27:20.554Z,0.00
2016-08-24T04:28:21.064Z,0.00
2016-08-24T04:29:21.580Z,0.00
2016-08-24T04:30:22.092Z,0.00
2016-08-24T04:31:22.773Z,0.00
2016-08-24T04:32:23.115Z,1.00
2016-08-24T04:33:23.627Z,1.00
2016-08-24T04:34:24.138Z,1.00
2016-08-24T04:35:24.651Z,1.00
2016-08-24T04:36:25.160Z,1.00
2016-08-24T04:37:25.674Z,1.00
2016-08-24T04:38:26.194Z,9.00
2016-08-24T04:39:26.853Z,1.00
2016-08-24T04:40:27.367Z,1.00
2016-08-24T04:41:27.734Z,1.00
2016-08-24T04:42:28.241Z,1.00
2016-08-24T04:43:28.748Z,1.00
2016-08-24T04:44:29.269Z,1.00
2016-08-24T04:45:29.776Z,1.00
2016-08-24T04:46:30.287Z,1.00
2016-08-24T04:47:30.839Z,1.00
2016-08-24T04:48:31.313Z,1.00
2016-08-24T04:49:31.826Z,1.00
2016-08-24T04:50:32.342Z,2.00
2016-08-24T04:51:32.880Z,2.00
2016-08-24T04:52:33.358Z,2.00
2016-08-24T04:53:33.877Z,2.00
2016-08-24T04:54:34.385Z,2.00
2016-08-24T04:55:34.902Z,2.00
2016-08-24T04:56:35.411Z,2.00
2016-08-24T04:57:36.072Z,2.00
2016-08-24T04:58:36.446Z,2.00
2016-08-24T04:59:36.950Z,2.00
2016-08-24T05:00:37.618Z,2.00
2016-08-24T05:01:38.125Z,2.00
2016-08-24T05:02:38.498Z,2.00
2016-08-24T05:03:39.012Z,2.00
2016-08-24T05:04:39.534Z,3.00
2016-08-24T05:05:40.048Z,3.00
2016-08-24T05:06:40.562Z,3.00
2016-08-24T05:07:41.073Z,3.00
2016-08-24T05:08:41.585Z,3.00
2016-08-24T05:09:42.096Z,3.00
2016-08-24T05:10:42.671Z,3.00
2016-08-24T05:11:43.144Z,3.00
2016-08-24T05:12:43.637Z,3.00
2016-08-24T05:13:44.151Z,3.00
2016-08-24T05:14:44.668Z,3.00
2016-08-24T05:15:45.177Z,3.00
2016-08-24T05:16:45.682Z,3.00
2016-08-24T05:17:46.200Z,3.00
2016-08-24T05:18:46.717Z,3.00
2016-08-24T05:19:47.227Z,4.00
2016-08-24T05:20:47.738Z,4.00
2016-08-24T05:21:48.257Z,4.00
2016-08-24T05:22:48.805Z,4.00
2016-08-24T05:23:49.296Z,4.00
2016-08-24T05:24:49.799Z,4.00
2016-08-24T05:25:50.324Z,4.00
2016-08-24T05:26:50.822Z,4.00
2016-08-24T05:27:51.341Z,4.00
2016-08-24T05:28:51.845Z,4.00
2016-08-24T05:29:52.358Z,4.00
2016-08-24T05:30:52.872Z,4.00
2016-08-24T05:31:53.410Z,5.00
2016-08-24T05:32:53.903Z,5.00
2016-08-24T05:33:54.416Z,5.00
2016-08-24T05:34:54.932Z,5.00
2016-08-24T05:35:55.439Z,5.00
2016-08-24T05:36:55.952Z,5.00
2016-08-24T05:37:56.462Z,5.00
2016-08-24T05:38:57.134Z,5.00
2016-08-24T05:39:57.498Z,5.00
2016-08-24T05:40:58.164Z,5.00
2016-08-24T05:41:58.530Z,5.00
2016-08-24T05:42:59.046Z,19.00
2016-08-24T05:43:59.555Z,48.00
2016-08-24T05:45:00.079Z,69.00
2016-08-24T05:46:00.582Z,64.00
2016-08-24T05:47:01.095Z,64.00
2016-08-24T05:48:01.762Z,65.00
2016-08-24T05:49:02.129Z,66.00
2016-08-24T05:50:02.676Z,67.00
2016-08-24T05:51:03.301Z,67.00
2016-08-24T05:52:03.664Z,68.00
2016-08-24T05:53:04.174Z,69.00
2016-08-24T05:54:04.686Z,79.00
2016-08-24T05:55:05.198Z,79.00
2016-08-24T05:56:05.712Z,70.00
2016-08-24T05:57:06.233Z,71.00
2016-08-24T05:58:06.758Z,72.00
2016-08-24T05:59:08.902Z,72.00
2016-08-24T06:00:07.762Z,73.00
2016-08-24T06:01:08.279Z,74.00
2016-08-24T06:02:08.818Z,74.00
2016-08-24T06:03:09.305Z,75.00
2016-08-24T06:04:09.818Z,75.00
2016-08-24T06:05:10.332Z,76.00
2016-08-24T06:06:10.845Z,77.00
2016-08-24T06:07:11.356Z,77.00
2016-08-24T06:08:11.880Z,78.00
2016-08-24T06:09:12.381Z,78.00
2016-08-24T06:10:13.050Z,79.00
2016-08-24T06:11:13.439Z,79.00
2016-08-24T06:12:13.926Z,79.00
2016-08-24T06:13:14.460Z,89.00
2016-08-24T06:14:14.949Z,80.00
2016-08-24T06:15:15.469Z,81.00
2016-08-24T06:16:15.984Z,81.00
2016-08-24T06:17:16.502Z,89.00
2016-08-24T06:18:17.016Z,82.00
2016-08-24T06:19:17.535Z,83.00
2016-08-24T06:20:18.047Z,83.00
2016-08-24T06:21:18.704Z,83.00
2016-08-24T06:22:19.067Z,84.00
2016-08-24T06:23:19.595Z,84.00
2016-08-24T06:24:20.096Z,85.00
2016-08-24T06:25:20.611Z,85.00
2016-08-24T06:26:21.120Z,85.00
2016-08-24T06:27:21.633Z,86.00
2016-08-24T06:28:22.147Z,86.00
2016-08-24T06:29:23.127Z,87.00
2016-08-24T06:30:23.316Z,87.00
2016-08-24T06:31:23.832Z,87.00
2016-08-24T06:32:24.206Z,88.00
2016-08-24T06:33:24.714Z,88.00
2016-08-24T06:34:25.221Z,88.00
2016-08-24T06:35:25.740Z,89.00
2016-08-24T06:36:26.250Z,89.00
2016-08-24T06:37:26.763Z,99.00
2016-08-24T06:38:27.274Z,90.00
2016-08-24T06:39:27.784Z,90.00
2016-08-24T06:40:28.298Z,90.00
2016-08-24T06:41:28.812Z,91.00
2016-08-24T06:42:29.323Z,91.00
2016-08-24T06:43:29.867Z,91.00
2016-08-24T06:44:30.350Z,91.00
2016-08-24T06:45:30.869Z,91.00
2016-08-24T06:46:31.381Z,91.00
2016-08-24T06:47:31.896Z,92.00
2016-08-24T06:48:32.408Z,92.00
2016-08-24T06:49:32.917Z,92.00
2016-08-24T06:50:33.435Z,92.00
2016-08-24T06:51:33.953Z,93.00
2016-08-24T06:52:34.464Z,93.00
2016-08-24T06:53:35.023Z,99.00
2016-08-24T06:54:35.508Z,93.00
2016-08-24T06:55:36.165Z,93.00
2016-08-24T06:56:36.524Z,93.00
2016-08-24T06:57:37.051Z,94.00
2016-08-24T06:58:37.547Z,94.00
2016-08-24T06:59:38.209Z,94.00
2016-08-24T07:00:38.577Z,94.00
2016-08-24T07:01:39.081Z,94.00
2016-08-24T07:02:39.745Z,95.00
2016-08-24T07:03:40.125Z,95.00
2016-08-24T07:04:40.648Z,95.00
2016-08-24T07:05:41.138Z,95.00
2016-08-24T07:06:41.650Z,95.00
2016-08-24T07:07:42.164Z,95.00
2016-08-24T07:08:42.677Z,95.00
2016-08-24T07:09:43.229Z,95.00
2016-08-24T07:10:43.705Z,95.00
2016-08-24T07:11:44.373Z,95.00
2016-08-24T07:12:44.741Z,95.00
2016-08-24T07:13:45.398Z,95.00
2016-08-24T07:14:45.766Z,95.00
2016-08-24T07:15:46.286Z,96.00
2016-08-24T07:16:46.789Z,96.00
2016-08-24T07:17:47.451Z,96.00
2016-08-24T07:18:47.811Z,96.00
2016-08-24T07:19:48.325Z,96.00
2016-08-24T07:20:48.855Z,96.00
2016-08-24T07:21:49.349Z,96.00
2016-08-24T07:22:49.863Z,96.00
2016-08-24T07:23:50.387Z,96.00
2016-08-24T07:24:50.897Z,96.00
2016-08-24T07:25:51.437Z,96.00
2016-08-24T07:26:51.923Z,96.00
2016-08-24T07:27:52.437Z,96.00
2016-08-24T07:28:52.959Z,95.00
2016-08-24T07:29:53.477Z,95.00
2016-08-24T07:30:53.996Z,95.00
2016-08-24T07:31:54.515Z,95.00
2016-08-24T07:32:55.022Z,95.00
2016-08-24T07:33:55.540Z,95.00
2016-08-24T07:34:56.207Z,95.00
2016-08-24T07:35:56.578Z,95.00
2016-08-24T07:36:57.072Z,95.00
2016-08-24T07:37:57.586Z,95.00
2016-08-24T07:38:58.095Z,95.00
2016-08-24T07:39:58.615Z,95.00
2016-08-24T07:40:59.124Z,94.00
2016-08-24T07:41:59.637Z,94.00
2016-08-24T07:43:00.149Z,94.00
2016-08-24T07:44:00.818Z,94.00
2016-08-24T07:45:01.188Z,94.00
2016-08-24T07:46:01.708Z,94.00
2016-08-24T07:47:02.203Z,94.00
2016-08-24T07:48:02.718Z,99.00
2016-08-24T07:49:03.238Z,93.00
2016-08-24T07:50:03.745Z,93.00
2016-08-24T07:51:04.251Z,93.00
2016-08-24T07:52:04.761Z,93.00
2016-08-24T07:53:05.282Z,93.00
2016-08-24T07:54:05.789Z,93.00
2016-08-24T07:55:06.301Z,93.00
2016-08-24T07:56:06.830Z,93.00
2016-08-24T07:57:07.473Z,93.00
2016-08-24T07:58:07.837Z,93.00
2016-08-24T07:59:08.347Z,92.00
2016-08-24T08:00:08.858Z,92.00
2016-08-24T08:01:09.371Z,92.00
2016-08-24T08:02:09.879Z,92.00
2016-08-24T08:03:10.393Z,92.00
2016-08-24T08:04:11.056Z,92.00
2016-08-24T08:05:11.424Z,92.00
2016-08-24T08:06:11.936Z,92.00
2016-08-24T08:07:12.457Z,91.00
2016-08-24T08:08:12.977Z,91.00
2016-08-24T08:09:13.488Z,91.00
2016-08-24T08:10:14.007Z,91.00
2016-08-24T08:11:14.513Z,99.00
2016-08-24T08:12:15.029Z,91.00
2016-08-24T08:13:15.540Z,91.00
2016-08-24T08:14:16.051Z,99.00
2016-08-24T08:15:16.712Z,91.00
2016-08-24T08:16:17.077Z,91.00
2016-08-24T08:17:17.587Z,90.00
2016-08-24T08:18:18.101Z,90.00
2016-08-24T08:19:18.611Z,99.00
2016-08-24T08:20:19.126Z,99.00
2016-08-24T08:21:19.646Z,90.00
2016-08-24T08:22:20.153Z,99.00
2016-08-24T08:23:21.865Z,99.00
2016-08-24T08:24:21.175Z,89.00
2016-08-24T08:25:21.702Z,89.00
2016-08-24T08:26:22.209Z,89.00
2016-08-24T08:27:22.722Z,89.00
2016-08-24T08:28:23.386Z,89.00
2016-08-24T08:29:23.751Z,89.00
2016-08-24T08:30:24.410Z,89.00
2016-08-24T08:31:24.777Z,88.00
2016-08-24T08:32:25.290Z,88.00
2016-08-24T08:33:25.953Z,88.00
2016-08-24T08:34:26.330Z,88.00
2016-08-24T08:35:26.845Z,87.00
2016-08-24T08:36:27.370Z,87.00
2016-08-24T08:37:27.858Z,87.00
2016-08-24T08:38:28.372Z,87.00
2016-08-24T08:39:28.883Z,87.00
2016-08-24T08:40:29.397Z,86.00
2016-08-24T08:41:29.916Z,86.00
2016-08-24T08:42:30.435Z,86.00
2016-08-24T08:43:30.953Z,86.00
2016-08-24T08:44:31.474Z,89.00
2016-08-24T08:45:32.156Z,86.00
2016-08-24T08:46:32.518Z,86.00
2016-08-24T08:47:33.159Z,85.00
2016-08-24T08:48:33.525Z,85.00
2016-08-24T08:49:34.038Z,85.00
2016-08-24T08:50:34.569Z,85.00
2016-08-24T08:51:35.063Z,85.00
2016-08-24T08:52:35.747Z,85.00
2016-08-24T08:53:36.238Z,84.00
2016-08-24T08:54:36.602Z,84.00
2016-08-24T08:55:37.111Z,84.00
2016-08-24T08:56:37.624Z,84.00
2016-08-24T08:57:38.137Z,83.00
2016-08-24T08:58:38.656Z,83.00
2016-08-24T08:59:39.162Z,83.00
2016-08-24T09:00:39.674Z,89.00
2016-08-24T09:01:40.187Z,83.00
2016-08-24T09:02:40.705Z,83.00
2016-08-24T09:03:41.215Z,82.00
2016-08-24T09:04:41.727Z,82.00
2016-08-24T09:05:42.238Z,82.00
2016-08-24T09:06:42.752Z,81.00
2016-08-24T09:07:43.286Z,81.00
2016-08-24T09:08:43.808Z,81.00
2016-08-24T09:09:44.287Z,89.00
2016-08-24T09:10:44.809Z,80.00
2016-08-24T09:11:45.319Z,80.00
2016-08-24T09:12:45.829Z,80.00
2016-08-24T09:13:46.348Z,80.00
2016-08-24T09:14:46.856Z,89.00
2016-08-24T09:15:47.401Z,80.00
2016-08-24T09:16:47.886Z,79.00
2016-08-24T09:17:48.404Z,79.00
2016-08-24T09:18:48.925Z,79.00
2016-08-24T09:19:49.439Z,79.00
2016-08-24T09:20:49.962Z,79.00
2016-08-24T09:21:50.499Z,78.00
2016-08-24T09:22:50.986Z,78.00
2016-08-24T09:23:51.498Z,77.00
2016-08-24T09:24:52.163Z,77.00
2016-08-24T09:25:52.718Z,77.00
2016-08-24T09:26:53.041Z,77.00
2016-08-24T09:27:53.551Z,77.00
2016-08-24T09:28:54.070Z,77.00
2016-08-24T09:29:54.733Z,76.00
2016-08-24T09:30:55.089Z,76.00
2016-08-24T09:31:55.606Z,76.00
2016-08-24T09:32:56.127Z,76.00
2016-08-24T09:33:56.633Z,79.00
2016-08-24T09:34:57.151Z,75.00
2016-08-24T09:35:57.675Z,75.00
2016-08-24T09:36:58.175Z,75.00
2016-08-24T09:37:58.694Z,79.00
2016-08-24T09:38:59.215Z,74.00
2016-08-24T09:39:59.726Z,74.00
2016-08-24T09:41:00.238Z,73.00
2016-08-24T09:42:00.750Z,73.00
2016-08-24T09:43:01.264Z,73.00
2016-08-24T09:44:01.776Z,73.00
2016-08-24T09:45:02.292Z,72.00
2016-08-24T09:46:02.833Z,72.00
2016-08-24T09:47:03.471Z,72.00
2016-08-24T09:48:03.834Z,72.00
2016-08-24T09:49:04.350Z,72.00
2016-08-24T09:50:04.865Z,72.00
2016-08-24T09:51:05.379Z,72.00
2016-08-24T09:52:05.891Z,71.00
2016-08-24T09:53:06.411Z,71.00
2016-08-24T09:54:06.925Z,70.00
2016-08-24T09:55:07.445Z,70.00
2016-08-24T09:56:08.115Z,79.00
2016-08-24T09:57:08.472Z,79.00
2016-08-24T09:58:08.991Z,79.00
2016-08-24T09:59:11.154Z,69.00
2016-08-24T10:00:10.015Z,69.00
2016-08-24T10:01:10.532Z,69.00
2016-08-24T10:02:11.046Z,69.00
2016-08-24T10:03:11.562Z,69.00
2016-08-24T10:04:12.076Z,68.00
2016-08-24T10:05:12.601Z,68.00
2016-08-24T10:06:13.131Z,68.00
2016-08-24T10:07:13.618Z,67.00
2016-08-24T10:08:14.132Z,67.00
2016-08-24T10:09:14.792Z,66.00
2016-08-24T10:10:15.160Z,66.00
2016-08-24T10:11:15.676Z,66.00
2016-08-24T10:12:16.331Z,66.00
2016-08-24T10:13:16.701Z,66.00
2016-08-24T10:14:17.212Z,65.00
2016-08-24T10:15:17.727Z,65.00
2016-08-24T10:16:18.245Z,65.00
2016-08-24T10:17:18.755Z,64.00
2016-08-24T10:18:19.259Z,64.00
2016-08-24T10:19:19.780Z,64.00
2016-08-24T10:20:20.437Z,63.00
2016-08-24T10:21:20.811Z,63.00
2016-08-24T10:22:21.470Z,63.00
2016-08-24T10:23:21.985Z,63.00
2016-08-24T10:24:22.347Z,62.00
2016-08-24T10:25:22.869Z,62.00
2016-08-24T10:26:23.533Z,62.00
2016-08-24T10:27:23.890Z,61.00
2016-08-24T10:28:24.402Z,61.00
2016-08-24T10:29:26.874Z,61.00
2016-08-24T10:30:25.436Z,61.00
2016-08-24T10:31:25.969Z,60.00
2016-08-24T10:32:26.467Z,60.00
2016-08-24T10:33:26.990Z,69.00
2016-08-24T10:34:27.503Z,59.00
2016-08-24T10:35:28.175Z,59.00
2016-08-24T10:36:28.524Z,59.00
2016-08-24T10:37:29.201Z,59.00
2016-08-24T10:38:29.551Z,58.00
2016-08-24T10:39:30.068Z,58.00
2016-08-24T10:40:30.574Z,58.00
2016-08-24T10:41:31.087Z,58.00
2016-08-24T10:42:31.599Z,57.00
2016-08-24T10:43:32.257Z,57.00
2016-08-24T10:44:32.622Z,57.00
2016-08-24T10:45:33.136Z,57.00
2016-08-24T10:46:33.653Z,56.00
2016-08-24T10:47:34.162Z,56.00
2016-08-24T10:48:34.678Z,56.00
2016-08-24T10:49:35.192Z,55.00
2016-08-24T10:50:35.707Z,55.00
2016-08-24T10:51:36.222Z,55.00
2016-08-24T10:52:36.887Z,55.00
2016-08-24T10:53:37.251Z,54.00
2016-08-24T10:54:37.759Z,54.00
2016-08-24T10:55:38.269Z,53.00
2016-08-24T10:56:38.814Z,53.00
2016-08-24T10:57:39.304Z,53.00
2016-08-24T10:58:39.815Z,53.00
2016-08-24T10:59:40.329Z,53.00
2016-08-24T11:00:40.841Z,52.00
2016-08-24T11:01:41.353Z,52.00
2016-08-24T11:02:41.867Z,51.00
2016-08-24T11:03:42.379Z,51.00
2016-08-24T11:04:42.890Z,51.00
2016-08-24T11:05:43.438Z,51.00
2016-08-24T11:06:43.936Z,51.00
2016-08-24T11:07:44.444Z,50.00
2016-08-24T11:08:44.960Z,59.00
2016-08-24T11:09:45.473Z,59.00
2016-08-24T11:10:45.990Z,49.00
2016-08-24T11:11:46.507Z,49.00
2016-08-24T11:12:47.017Z,49.00
2016-08-24T11:13:47.686Z,49.00
2016-08-24T11:14:48.200Z,48.00
2016-08-24T11:15:48.557Z,48.00
2016-08-24T11:16:49.068Z,49.00
2016-08-24T11:17:49.589Z,48.00
2016-08-24T11:18:50.091Z,47.00
2016-08-24T11:19:50.632Z,47.00
2016-08-24T11:20:51.115Z,47.00
2016-08-24T11:21:51.632Z,49.00
2016-08-24T11:22:52.301Z,46.00
2016-08-24T11:23:52.668Z,46.00
2016-08-24T11:24:53.182Z,46.00
2016-08-24T11:25:53.687Z,45.00
2016-08-24T11:26:54.201Z,45.00
2016-08-24T11:27:54.717Z,45.00
2016-08-24T11:28:55.231Z,45.00
2016-08-24T11:29:55.745Z,44.00
2016-08-24T11:30:56.257Z,44.00
2016-08-24T11:31:56.771Z,44.00
2016-08-24T11:32:57.283Z,44.00
2016-08-24T11:33:57.800Z,44.00
2016-08-24T11:34:58.314Z,43.00
2016-08-24T11:35:58.825Z,43.00
2016-08-24T11:36:59.490Z,43.00
2016-08-24T11:37:59.854Z,43.00
2016-08-24T11:39:00.370Z,42.00
2016-08-24T11:40:00.889Z,42.00
2016-08-24T11:41:01.397Z,42.00
2016-08-24T11:42:01.915Z,42.00
2016-08-24T11:43:02.433Z,41.00
2016-08-24T11:44:02.952Z,41.00
2016-08-24T11:45:03.912Z,41.00
2016-08-24T11:46:03.997Z,41.00
2016-08-24T11:47:04.496Z,41.00
2016-08-24T11:48:05.009Z,41.00
2016-08-24T11:49:05.529Z,40.00
2016-08-24T11:50:06.041Z,49.00
2016-08-24T11:51:06.563Z,40.00
2016-08-24T11:52:07.075Z,39.00
2016-08-24T11:53:07.589Z,39.00
2016-08-24T11:54:08.096Z,39.00
2016-08-24T11:55:08.609Z,39.00
2016-08-24T11:56:09.119Z,39.00
2016-08-24T11:57:09.786Z,38.00
2016-08-24T11:58:10.155Z,38.00
2016-08-24T11:59:10.664Z,38.00
2016-08-24T12:00:11.177Z,38.00
2016-08-24T12:01:11.696Z,38.00
2016-08-24T12:02:12.201Z,38.00
2016-08-24T12:03:12.727Z,38.00
2016-08-24T12:04:13.227Z,38.00
2016-08-24T12:05:13.753Z,38.00
2016-08-24T12:06:14.270Z,38.00
2016-08-24T12:07:14.914Z,37.00
2016-08-24T12:08:15.307Z,37.00
2016-08-24T12:09:15.799Z,37.00
2016-08-24T12:10:16.316Z,37.00
2016-08-24T12:11:16.823Z,37.00
2016-08-24T12:12:17.342Z,37.00
2016-08-24T12:13:17.851Z,37.00
2016-08-24T12:14:18.366Z,37.00
2016-08-24T12:15:19.026Z,37.00
2016-08-24T12:16:19.553Z,37.00
2016-08-24T12:17:19.904Z,37.00
2016-08-24T12:18:20.429Z,37.00
2016-08-24T12:19:20.934Z,37.00
2016-08-24T12:20:21.450Z,37.00
2016-08-24T12:21:21.963Z,37.00
2016-08-24T12:22:22.477Z,37.00
2016-08-24T12:23:22.986Z,36.00
2016-08-24T12:24:23.670Z,36.00
2016-08-24T12:25:24.165Z,36.00
2016-08-24T12:26:24.528Z,36.00
2016-08-24T12:27:25.049Z,36.00
2016-08-24T12:28:25.584Z,36.00
2016-08-24T12:29:26.070Z,36.00
2016-08-24T12:30:26.580Z,36.00
2016-08-24T12:31:27.089Z,36.00
2016-08-24T12:32:27.601Z,36.00
2016-08-24T12:33:28.119Z,36.00
2016-08-24T12:34:28.632Z,39.00
2016-08-24T12:35:29.147Z,36.00
2016-08-24T12:36:29.814Z,36.00
2016-08-24T12:37:30.327Z,36.00
2016-08-24T12:38:30.695Z,36.00
2016-08-24T12:39:31.202Z,36.00
2016-08-24T12:40:31.715Z,36.00
2016-08-24T12:41:32.242Z,35.00
2016-08-24T12:42:32.741Z,36.00
2016-08-24T12:43:33.253Z,36.00
2016-08-24T12:44:33.766Z,36.00
2016-08-24T12:45:34.275Z,35.00
2016-08-24T12:46:34.791Z,35.00
2016-08-24T12:47:35.333Z,35.00
2016-08-24T12:48:35.820Z,35.00
2016-08-24T12:49:36.331Z,35.00
2016-08-24T12:50:36.842Z,35.00
2016-08-24T12:51:37.359Z,35.00
2016-08-24T12:52:38.020Z,35.00
2016-08-24T12:53:40.032Z,35.00
2016-08-24T12:54:38.898Z,35.00
2016-08-24T12:55:39.426Z,35.00
2016-08-24T12:56:39.939Z,35.00
2016-08-24T12:57:40.595Z,34.00
2016-08-24T12:58:40.963Z,34.00
2016-08-24T12:59:41.475Z,34.00
2016-08-24T13:00:41.986Z,34.00
2016-08-24T13:01:42.500Z,34.00
2016-08-24T13:02:43.016Z,34.00
2016-08-24T13:03:43.563Z,34.00
2016-08-24T13:04:44.083Z,34.00
2016-08-24T13:05:44.706Z,34.00
2016-08-24T13:06:45.063Z,34.00
2016-08-24T13:07:45.581Z,34.00
2016-08-24T13:08:46.097Z,34.00
2016-08-24T13:09:46.606Z,34.00